createdAt,value
2023-01-19T00:00:14.347Z,97829.64
2023-01-19T00:01:18.606Z,97829.46
2023-01-19T00:02:22.934Z,97830.21
2023-01-19T00:03:27.243Z,97829.81
2023-01-19T00:04:31.344Z,97828.29
2023-01-19T00:05:35.464Z,97833.7
2023-01-19T00:06:39.543Z,97832.05
2023-01-19T00:07:43.775Z,97821.22
2023-01-19T00:08:47.875Z,97831.59
2023-01-19T00:09:52.216Z,97828.52
2023-01-19T00:10:56.339Z,97831.64
2023-01-19T00:12:00.552Z,97827.17
2023-01-19T00:13:04.810Z,97831.72
2023-01-19T00:14:08.950Z,97832.4
2023-01-19T00:15:13.066Z,97836.54
2023-01-19T00:16:17.265Z,97831.54
2023-01-19T00:17:21.528Z,97840.55
2023-01-19T00:18:25.793Z,97837.3
2023-01-19T00:19:29.888Z,97839.44
2023-01-19T00:20:33.992Z,97836.4
2023-01-19T00:21:38.124Z,97839.66
2023-01-19T00:22:42.294Z,97837.02
2023-01-19T00:23:46.417Z,97843.67
2023-01-19T00:24:50.662Z,97835.5
2023-01-19T00:25:54.794Z,97848.84
2023-01-19T00:26:58.981Z,97844.37
2023-01-19T00:28:03.188Z,97839.42
2023-01-19T00:29:07.338Z,97844.65
2023-01-19T00:30:11.434Z,97845.98
2023-01-19T00:31:15.624Z,97850.13
2023-01-19T00:32:19.768Z,97852.4
2023-01-19T00:33:23.885Z,97852.49
2023-01-19T00:34:28.040Z,97851.81
2023-01-19T00:35:32.161Z,97853.83
2023-01-19T00:36:36.272Z,97850.75
2023-01-19T00:37:40.366Z,97854.89
2023-01-19T00:38:44.499Z,97848.42
2023-01-19T00:39:48.628Z,97843.02
2023-01-19T00:40:52.750Z,97842.58
2023-01-19T00:41:56.863Z,97851.5
2023-01-19T00:43:02.160Z,97842.17
2023-01-19T00:44:06.829Z,97844.17
2023-01-19T00:45:10.975Z,97844.36
2023-01-19T00:46:15.468Z,97851.45
2023-01-19T00:47:19.687Z,97843.86
2023-01-19T00:48:23.820Z,97843.33
2023-01-19T00:49:27.943Z,97845.51
2023-01-19T00:50:32.095Z,97842.97
2023-01-19T00:51:36.198Z,97845.51
2023-01-19T00:52:40.303Z,97851.77
2023-01-19T00:53:44.415Z,97844.89
2023-01-19T00:54:48.600Z,97845.02
2023-01-19T00:55:52.767Z,97850.15
2023-01-19T00:56:56.921Z,97853.35
2023-01-19T00:58:01.080Z,97855.09
2023-01-19T00:59:05.224Z,97853.05
2023-01-19T01:00:09.360Z,97846.8
2023-01-19T01:01:13.737Z,97846.08
2023-01-19T01:02:18.770Z,97848.31
2023-01-19T01:03:23.244Z,97850.71
2023-01-19T01:04:27.493Z,97842.59
2023-01-19T01:05:31.619Z,97845.36
2023-01-19T01:06:35.824Z,97843.63
2023-01-19T01:07:39.956Z,97837.78
2023-01-19T01:08:44.103Z,97836.56
2023-01-19T01:09:48.210Z,97840.41
2023-01-19T01:10:52.380Z,97839.39
2023-01-19T01:11:56.552Z,97836.98
2023-01-19T01:13:23.802Z,97834.63
2023-01-19T01:14:31.344Z,97831.6
2023-01-19T01:15:35.554Z,97833.83
2023-01-19T01:16:39.767Z,97832.73
2023-01-19T01:17:44.000Z,97833.72
2023-01-19T01:18:48.113Z,97827.8
2023-01-19T01:19:52.301Z,97829.22
2023-01-19T01:20:57.358Z,97833.52
2023-01-19T01:22:01.510Z,97834.28
2023-01-19T01:23:05.886Z,97825.45
2023-01-19T01:24:09.984Z,97825.09
2023-01-19T01:25:14.276Z,97825.68
2023-01-19T01:26:18.377Z,97826.17
2023-01-19T01:27:22.480Z,97830.23
2023-01-19T01:28:26.765Z,97823.36
2023-01-19T01:29:30.943Z,97828.95
2023-01-19T01:30:35.109Z,97827.57
2023-01-19T01:31:39.390Z,97821.69
2023-01-19T01:32:43.529Z,97820.61
2023-01-19T01:33:47.731Z,97823.06
2023-01-19T01:34:51.909Z,97819.5
2023-01-19T01:35:56.018Z,97820.56
2023-01-19T01:37:00.141Z,97819.86
2023-01-19T01:38:04.486Z,97819.63
2023-01-19T01:39:08.623Z,97813.39
2023-01-19T01:40:12.730Z,97817
2023-01-19T01:41:16.906Z,97812.05
2023-01-19T01:42:24.979Z,97817.34
2023-01-19T01:43:29.136Z,97819.49
2023-01-19T01:44:33.250Z,97812.62
2023-01-19T01:45:37.477Z,97815.2
2023-01-19T01:46:41.751Z,97821.89
2023-01-19T01:47:45.880Z,97813.02
2023-01-19T01:48:50.000Z,97810.03
2023-01-19T01:49:54.282Z,97803.7
2023-01-19T01:50:58.394Z,97802.63
2023-01-19T01:52:02.522Z,97800.08
2023-01-19T01:53:08.517Z,97800.71
2023-01-19T01:54:13.056Z,97796.92
2023-01-19T01:55:17.150Z,97801.88
2023-01-19T01:56:21.256Z,97800.66
2023-01-19T01:57:25.371Z,97801.59
2023-01-19T01:58:29.509Z,97807.18
2023-01-19T01:59:33.607Z,97802.5
2023-01-19T02:00:37.747Z,97813.52
2023-01-19T02:01:42.246Z,97807.98
2023-01-19T02:02:46.556Z,97818.38
2023-01-19T02:03:50.754Z,97806.5
2023-01-19T02:04:54.967Z,97807.75
2023-01-19T02:05:59.080Z,97808.1
2023-01-19T02:07:03.209Z,97809.22
2023-01-19T02:08:07.324Z,97805.87
2023-01-19T02:09:11.427Z,97812.83
2023-01-19T02:10:15.553Z,97810.02
2023-01-19T02:11:19.668Z,97803.63
2023-01-19T02:12:23.813Z,97805.02
2023-01-19T02:13:27.920Z,97806.58
2023-01-19T02:14:32.028Z,97808.33
2023-01-19T02:15:36.151Z,97805.95
2023-01-19T02:16:40.357Z,97800.19
2023-01-19T02:17:44.513Z,97801.45
2023-01-19T02:18:48.659Z,97800.06
2023-01-19T02:19:52.762Z,97802.03
2023-01-19T02:20:56.854Z,97798.2
2023-01-19T02:22:01.128Z,97798.37
2023-01-19T02:23:05.266Z,97800.88
2023-01-19T02:24:09.357Z,97800.52
2023-01-19T02:25:13.527Z,97796.41
2023-01-19T02:26:17.617Z,97793.47
2023-01-19T02:27:21.850Z,97797.66
2023-01-19T02:28:25.971Z,97796.91
2023-01-19T02:29:30.067Z,97799.18
2023-01-19T02:30:34.294Z,97801.28
2023-01-19T02:31:38.472Z,97793.91
2023-01-19T02:32:42.577Z,97796.09
2023-01-19T02:33:46.704Z,97798.95
2023-01-19T02:34:50.812Z,97794.48
2023-01-19T02:35:54.913Z,97796.57
2023-01-19T02:36:59.110Z,97790.81
2023-01-19T02:38:03.260Z,97791.03
2023-01-19T02:39:07.380Z,97796.03
2023-01-19T02:40:11.487Z,97799.59
2023-01-19T02:41:15.571Z,97793.94
2023-01-19T02:42:19.699Z,97794.06
2023-01-19T02:43:23.798Z,97801.06
2023-01-19T02:44:27.916Z,97800.53
2023-01-19T02:45:32.034Z,97803.84
2023-01-19T02:46:36.149Z,97797.5
2023-01-19T02:47:40.270Z,97806.66
2023-01-19T02:48:44.410Z,97804.43
2023-01-19T02:49:48.524Z,97813.41
2023-01-19T02:50:52.600Z,97807.82
2023-01-19T02:51:56.744Z,97813.05
2023-01-19T02:53:01.826Z,97811.48
2023-01-19T02:54:06.465Z,97814.34
2023-01-19T02:55:10.576Z,97811.81
2023-01-19T02:56:14.694Z,97811.18
2023-01-19T02:57:18.859Z,97825.11
2023-01-19T02:58:23.059Z,97825.86
2023-01-19T02:59:27.164Z,97818.45
2023-01-19T03:00:31.307Z,97814.49
2023-01-19T03:01:35.650Z,97828.59
2023-01-19T03:02:40.031Z,97823.23
2023-01-19T03:03:44.368Z,97824.27
2023-01-19T03:04:48.467Z,97829.75
2023-01-19T03:05:52.564Z,97822.66
2023-01-19T03:06:56.667Z,97823.59
2023-01-19T03:08:00.815Z,97828.91
2023-01-19T03:09:05.173Z,97829.3
2023-01-19T03:10:09.286Z,97825.81
2023-01-19T03:11:13.387Z,97826.09
2023-01-19T03:12:17.500Z,97825.46
2023-01-19T03:13:21.649Z,97829.7
2023-01-19T03:14:25.845Z,97828.01
2023-01-19T03:15:30.077Z,97828.84
2023-01-19T03:16:34.283Z,97834.61
2023-01-19T03:17:38.415Z,97830.45
2023-01-19T03:18:42.506Z,97832.86
2023-01-19T03:19:46.622Z,97826.52
2023-01-19T03:20:50.767Z,97821.43
2023-01-19T03:21:54.873Z,97827.09
2023-01-19T03:22:59.968Z,97835.58
2023-01-19T03:24:04.929Z,97833.56
2023-01-19T03:25:09.048Z,97831.92
2023-01-19T03:26:13.147Z,97832.73
2023-01-19T03:27:17.361Z,97823
2023-01-19T03:28:21.527Z,97830.86
2023-01-19T03:29:25.753Z,97835.59
2023-01-19T03:30:29.873Z,97833.44
2023-01-19T03:31:34.060Z,97830.86
2023-01-19T03:32:38.189Z,97834.43
2023-01-19T03:33:42.336Z,97823.59
2023-01-19T03:34:46.460Z,97824.92
2023-01-19T03:35:50.568Z,97834.38
2023-01-19T03:36:54.686Z,97833.27
2023-01-19T03:37:58.779Z,97835.28
2023-01-19T03:39:02.889Z,97836.87
2023-01-19T03:40:07.006Z,97845.5
2023-01-19T03:41:11.271Z,97841.25
2023-01-19T03:42:15.391Z,97844.78
2023-01-19T03:43:19.516Z,97844.33
2023-01-19T03:44:23.605Z,97844.11
2023-01-19T03:45:27.723Z,97850.84
2023-01-19T03:46:32.062Z,97850.92
2023-01-19T03:47:36.239Z,97859.82
2023-01-19T03:48:40.388Z,97857.14
2023-01-19T03:49:44.508Z,97855.75
2023-01-19T03:50:48.612Z,97853.02
2023-01-19T03:51:52.718Z,97850.51
2023-01-19T03:52:56.816Z,97839.88
2023-01-19T03:54:01.700Z,97835.8
2023-01-19T03:55:05.793Z,97842.23
2023-01-19T03:56:09.956Z,97833.65
2023-01-19T03:57:14.071Z,97832.78
2023-01-19T03:58:18.186Z,97838.19
2023-01-19T03:59:22.295Z,97834.27
2023-01-19T04:00:26.420Z,97836.39
2023-01-19T04:01:30.831Z,97838.34
2023-01-19T04:02:35.318Z,97843.27
2023-01-19T04:03:39.535Z,97851.79
2023-01-19T04:04:43.678Z,97855.45
2023-01-19T04:05:47.774Z,97848.23
2023-01-19T04:06:51.928Z,97853.42
2023-01-19T04:07:56.058Z,97856.5
2023-01-19T04:09:01.425Z,97856.14
2023-01-19T04:10:08.644Z,97852.16
2023-01-19T04:11:12.776Z,97854.11
2023-01-19T04:12:16.927Z,97849.2
2023-01-19T04:13:21.025Z,97851.13
2023-01-19T04:14:25.157Z,97839.28
2023-01-19T04:15:29.277Z,97840.97
2023-01-19T04:16:33.394Z,97833.05
2023-01-19T04:17:37.535Z,97824.27
2023-01-19T04:18:41.682Z,97823.32
2023-01-19T04:19:45.863Z,97811.72
2023-01-19T04:20:49.989Z,97805.82
2023-01-19T04:21:54.166Z,97799.61
2023-01-19T04:22:58.705Z,97796.92
2023-01-19T04:24:03.456Z,97798.91
2023-01-19T04:25:07.605Z,97789.3
2023-01-19T04:26:11.734Z,97793.59
2023-01-19T04:27:15.829Z,97797.45
2023-01-19T04:28:19.950Z,97799.8
2023-01-19T04:29:24.054Z,97790.41
2023-01-19T04:30:28.181Z,97794.44
2023-01-19T04:31:32.451Z,97797.29
2023-01-19T04:32:36.667Z,97799.2
2023-01-19T04:33:40.877Z,97801.22
2023-01-19T04:34:45.012Z,97804.03
2023-01-19T04:35:49.113Z,97814.2
2023-01-19T04:36:53.212Z,97817.64
2023-01-19T04:37:57.404Z,97823.7
2023-01-19T04:39:01.555Z,97823.88
2023-01-19T04:40:05.673Z,97816.64
2023-01-19T04:41:09.823Z,97829.22
2023-01-19T04:42:13.923Z,97826.54
2023-01-19T04:43:18.032Z,97838.14
2023-01-19T04:44:22.198Z,97836.03
2023-01-19T04:45:26.317Z,97843.14
2023-01-19T04:46:30.465Z,97842.7
2023-01-19T04:47:34.636Z,97850.39
2023-01-19T04:48:40.629Z,97851.08
2023-01-19T04:49:45.674Z,97849.7
2023-01-19T04:50:49.928Z,97853.42
2023-01-19T04:51:54.021Z,97859.45
2023-01-19T04:52:58.469Z,97859.52
2023-01-19T04:54:03.184Z,97859.37
2023-01-19T04:55:07.362Z,97857.36
2023-01-19T04:56:11.619Z,97858.8
2023-01-19T04:57:16.144Z,97858.77
2023-01-19T04:58:20.248Z,97859.53
2023-01-19T04:59:24.349Z,97854.22
2023-01-19T05:00:28.467Z,97860.56
2023-01-19T05:01:32.829Z,97855.44
2023-01-19T05:02:37.304Z,97857.44
2023-01-19T05:03:41.632Z,97866.64
2023-01-19T05:04:45.743Z,97867.27
2023-01-19T05:05:49.877Z,97873.79
2023-01-19T05:06:53.992Z,97866.85
2023-01-19T05:07:58.113Z,97859.64
2023-01-19T05:09:02.231Z,97867.02
2023-01-19T05:10:06.334Z,97867.42
2023-01-19T05:11:10.529Z,97869.61
2023-01-19T05:12:14.636Z,97863.13
2023-01-19T05:13:18.744Z,97864.75
2023-01-19T05:14:22.869Z,97860.38
2023-01-19T05:15:26.945Z,97854.51
2023-01-19T05:16:31.259Z,97861.72
2023-01-19T05:17:35.453Z,97850.41
2023-01-19T05:18:39.570Z,97856.62
2023-01-19T05:19:43.689Z,97852.52
2023-01-19T05:20:47.837Z,97869.89
2023-01-19T05:21:51.969Z,97879.41
2023-01-19T05:22:56.074Z,97886.22
2023-01-19T05:24:00.241Z,97889.03
2023-01-19T05:25:04.443Z,97888.09
2023-01-19T05:26:10.554Z,97881.39
2023-01-19T05:27:14.699Z,97881.05
2023-01-19T05:28:18.829Z,97890.47
2023-01-19T05:29:22.925Z,97882.73
2023-01-19T05:30:27.043Z,97890.64
2023-01-19T05:31:31.693Z,97885.81
2023-01-19T05:32:36.145Z,97883.67
2023-01-19T05:33:40.434Z,97879.45
2023-01-19T05:34:44.524Z,97875.84
2023-01-19T05:35:48.642Z,97889.19
2023-01-19T05:36:52.779Z,97872.97
2023-01-19T05:37:56.922Z,97881.72
2023-01-19T05:39:01.094Z,97889.23
2023-01-19T05:40:05.200Z,97890.3
2023-01-19T05:41:09.357Z,97892.75
2023-01-19T05:42:13.478Z,97896
2023-01-19T05:43:17.595Z,97898.58
2023-01-19T05:44:21.697Z,97902.25
2023-01-19T05:45:25.817Z,97896.84
2023-01-19T05:46:29.954Z,97893.05
2023-01-19T05:47:34.171Z,97902.8
2023-01-19T05:48:38.289Z,97905.13
2023-01-19T05:49:42.409Z,97906.56
2023-01-19T05:50:46.553Z,97906.39
2023-01-19T05:51:50.654Z,97902.15
2023-01-19T05:52:54.784Z,97900.63
2023-01-19T05:53:58.948Z,97905.23
2023-01-19T05:55:03.092Z,97909.79
2023-01-19T05:56:07.203Z,97907.34
2023-01-19T05:57:11.312Z,97900.02
2023-01-19T05:58:15.447Z,97908.33
2023-01-19T05:59:19.567Z,97914.42
2023-01-19T06:00:23.717Z,97909.41
2023-01-19T06:01:28.015Z,97914.48
2023-01-19T06:02:32.298Z,97915.14
2023-01-19T06:03:36.808Z,97908.36
2023-01-19T06:04:41.287Z,97925.78
2023-01-19T06:05:45.404Z,97913.95
2023-01-19T06:06:49.670Z,97909.7
2023-01-19T06:07:53.789Z,97914.79
2023-01-19T06:08:57.910Z,97913.2
2023-01-19T06:10:02.046Z,97903.53
2023-01-19T06:11:06.188Z,97903.72
2023-01-19T06:12:10.298Z,97910.28
2023-01-19T06:13:14.734Z,97914.84
2023-01-19T06:14:18.864Z,97924.32
2023-01-19T06:15:23.025Z,97917.7
2023-01-19T06:16:27.271Z,97918.69
2023-01-19T06:17:31.494Z,97912.66
2023-01-19T06:18:35.610Z,97910.83
2023-01-19T06:19:39.993Z,97912.97
2023-01-19T06:20:44.091Z,97917.22
2023-01-19T06:21:48.173Z,97923.64
2023-01-19T06:22:52.581Z,97918.91
2023-01-19T06:23:56.692Z,97923.88
2023-01-19T06:25:00.883Z,97926.78
2023-01-19T06:26:05.059Z,97928.04
2023-01-19T06:27:09.233Z,97944.83
2023-01-19T06:28:13.351Z,97943.72
2023-01-19T06:29:17.465Z,97943.72
2023-01-19T06:30:21.620Z,97944.47
2023-01-19T06:31:25.838Z,97949.33
2023-01-19T06:32:29.989Z,97955.67
2023-01-19T06:33:34.132Z,97970.69
2023-01-19T06:34:38.275Z,97979.27
2023-01-19T06:35:42.424Z,97981.54
2023-01-19T06:36:46.561Z,97972.78
2023-01-19T06:37:50.682Z,97984.13
2023-01-19T06:38:54.835Z,97980.11
2023-01-19T06:39:58.954Z,97978.32
2023-01-19T06:41:03.350Z,97984.39
2023-01-19T06:42:07.568Z,97986.36
2023-01-19T06:43:11.886Z,97983.27
2023-01-19T06:44:15.985Z,97995.33
2023-01-19T06:45:20.136Z,97991
2023-01-19T06:46:24.264Z,97989.48
2023-01-19T06:47:28.405Z,97987.11
2023-01-19T06:48:32.902Z,97993.1
2023-01-19T06:49:37.036Z,97997.75
2023-01-19T06:50:41.130Z,97996.53
2023-01-19T06:51:45.254Z,97994.02
2023-01-19T06:52:49.362Z,97995.77
2023-01-19T06:53:53.468Z,98003.31
2023-01-19T06:54:57.825Z,98005.95
2023-01-19T06:56:02.467Z,98007.52
2023-01-19T06:57:08.560Z,98013.94
2023-01-19T06:58:12.748Z,98009.43
2023-01-19T06:59:16.858Z,98009.65
2023-01-19T07:00:20.969Z,98011.43
2023-01-19T07:01:25.288Z,98004.02
2023-01-19T07:02:30.319Z,98009.65
2023-01-19T07:03:34.882Z,98010.31
2023-01-19T07:04:39.007Z,98003.83
2023-01-19T07:05:43.182Z,98006.64
2023-01-19T07:06:47.327Z,97995.2
2023-01-19T07:07:51.568Z,98008.08
2023-01-19T07:08:55.946Z,98020.76
2023-01-19T07:10:00.048Z,98022.04
2023-01-19T07:11:32.426Z,98032.75
2023-01-19T07:12:37.085Z,98034.72
2023-01-19T07:13:41.471Z,98020.8
2023-01-19T07:14:45.585Z,98029.18
2023-01-19T07:15:49.714Z,98021.49
2023-01-19T07:16:53.918Z,98021.53
2023-01-19T07:17:58.133Z,98025.63
2023-01-19T07:19:02.221Z,98023.89
2023-01-19T07:20:06.316Z,98019.97
2023-01-19T07:21:10.646Z,98022.24
2023-01-19T07:22:14.755Z,98018.85
2023-01-19T07:23:18.868Z,98010.58
2023-01-19T07:24:22.995Z,98025.36
2023-01-19T07:25:27.139Z,98026.3
2023-01-19T07:26:31.366Z,98018.42
2023-01-19T07:27:35.591Z,98017.8
2023-01-19T07:28:39.749Z,98004.5
2023-01-19T07:29:43.879Z,97998.53
2023-01-19T07:30:48.133Z,97999.15
2023-01-19T07:31:52.546Z,98000.8
2023-01-19T07:32:56.762Z,98004.5
2023-01-19T07:34:01.581Z,98008.12
2023-01-19T07:35:05.712Z,98007.41
2023-01-19T07:36:09.849Z,98005.75
2023-01-19T07:37:13.980Z,98005.75
2023-01-19T07:38:18.128Z,97994.27
2023-01-19T07:39:22.216Z,97997.84
2023-01-19T07:40:26.353Z,97996.14
2023-01-19T07:41:30.471Z,98000.44
2023-01-19T07:42:34.593Z,97993.06
2023-01-19T07:43:38.710Z,97991.94
2023-01-19T07:44:42.814Z,97982.66
2023-01-19T07:45:47.060Z,97978.65
2023-01-19T07:46:51.242Z,97987.34
2023-01-19T07:47:55.345Z,97978.06
2023-01-19T07:48:59.467Z,97983.55
2023-01-19T07:50:03.639Z,97977.38
2023-01-19T07:51:07.755Z,97980.28
2023-01-19T07:52:14.912Z,97979.97
2023-01-19T07:53:19.024Z,97977.02
2023-01-19T07:54:23.161Z,97984.11
2023-01-19T07:55:27.263Z,97983.52
2023-01-19T07:56:33.836Z,97986.63
2023-01-19T07:57:38.444Z,97979.8
2023-01-19T07:58:42.551Z,97991.76
2023-01-19T07:59:46.669Z,97983.13
2023-01-19T08:00:50.891Z,97994.44
2023-01-19T08:01:55.555Z,97996.3
2023-01-19T08:03:02.588Z,98001.29
2023-01-19T08:04:07.612Z,98007.05
2023-01-19T08:05:11.895Z,98012.91
2023-01-19T08:06:16.049Z,98009.42
2023-01-19T08:07:20.268Z,98013.56
2023-01-19T08:08:24.583Z,98014.59
2023-01-19T08:09:28.760Z,98019.66
2023-01-19T08:10:32.865Z,98026.86
2023-01-19T08:11:36.962Z,98025.58
2023-01-19T08:12:41.137Z,98037.32
2023-01-19T08:13:45.271Z,98044.6
2023-01-19T08:14:49.398Z,98039.88
2023-01-19T08:15:53.735Z,98041.21
2023-01-19T08:16:57.913Z,98041.15
2023-01-19T08:18:02.041Z,98043.89
2023-01-19T08:19:06.163Z,98040.74
2023-01-19T08:20:10.555Z,98039.09
2023-01-19T08:21:14.740Z,98045.69
2023-01-19T08:22:18.854Z,98046.84
2023-01-19T08:23:23.039Z,98054
2023-01-19T08:24:27.125Z,98055.88
2023-01-19T08:25:31.259Z,98050.05
2023-01-19T08:26:35.397Z,98050.23
2023-01-19T08:27:39.556Z,98049.4
2023-01-19T08:28:43.729Z,98053.54
2023-01-19T08:29:47.902Z,98054.97
2023-01-19T08:30:52.525Z,98045.73
2023-01-19T08:31:57.056Z,98039.16
2023-01-19T08:33:02.101Z,98037.51
2023-01-19T08:34:06.875Z,98034.36
2023-01-19T08:35:11.035Z,98031.88
2023-01-19T08:36:15.153Z,98033.71
2023-01-19T08:37:19.374Z,98036.73
2023-01-19T08:38:23.535Z,98045.76
2023-01-19T08:39:27.670Z,98042.8
2023-01-19T08:40:31.788Z,98041.37
2023-01-19T08:41:35.902Z,98041.87
2023-01-19T08:42:40.062Z,98042.09
2023-01-19T08:43:44.214Z,98025.44
2023-01-19T08:44:58.849Z,98028.92
2023-01-19T08:46:03.028Z,98037.48
2023-01-19T08:47:07.509Z,98033.15
2023-01-19T08:48:11.751Z,98036.27
2023-01-19T08:49:15.895Z,98043.36
2023-01-19T08:50:20.050Z,98043.73
2023-01-19T08:51:24.165Z,98017.22
2023-01-19T08:52:28.303Z,98041.87
2023-01-19T08:53:32.562Z,98045.13
2023-01-19T08:54:39.350Z,98031.78
2023-01-19T08:55:43.489Z,98021.2
2023-01-19T08:56:47.613Z,98017.19
2023-01-19T08:57:51.732Z,98020.55
2023-01-19T08:59:11.390Z,98025.9
2023-01-19T09:00:17.517Z,98023.34
2023-01-19T09:01:21.924Z,98014.32
2023-01-19T09:02:26.495Z,98014.51
2023-01-19T09:03:30.935Z,98009.06
2023-01-19T09:04:35.086Z,97998.08
2023-01-19T09:05:39.208Z,98002.09
2023-01-19T09:06:43.438Z,98008.56
2023-01-19T09:07:47.725Z,98024.09
2023-01-19T09:08:51.829Z,98014.32
2023-01-19T09:09:55.952Z,98022.76
2023-01-19T09:11:00.288Z,98027.17
2023-01-19T09:12:04.893Z,98031.22
2023-01-19T09:13:09.225Z,98029.48
2023-01-19T09:14:13.385Z,98029.2
2023-01-19T09:15:17.533Z,98030.94
2023-01-19T09:16:21.782Z,98038.97
2023-01-19T09:17:26.023Z,98040.59
2023-01-19T09:18:30.121Z,98047.81
2023-01-19T09:19:35.916Z,98045.94
2023-01-19T09:20:40.078Z,98044.73
2023-01-19T09:21:44.237Z,98043.42
2023-01-19T09:22:48.352Z,98038.88
2023-01-19T09:23:52.486Z,98044.82
2023-01-19T09:24:56.728Z,98048.84
2023-01-19T09:26:00.831Z,98047.44
2023-01-19T09:27:04.940Z,98046.31
2023-01-19T09:28:09.072Z,98042.3
2023-01-19T09:29:13.295Z,98042.61
2023-01-19T09:30:17.416Z,98036.36
2023-01-19T09:31:21.792Z,98043.17
2023-01-19T09:32:26.111Z,98045.19
2023-01-19T09:33:30.229Z,98046.88
2023-01-19T09:34:34.342Z,98051.07
2023-01-19T09:35:38.427Z,98039.5
2023-01-19T09:36:42.683Z,98052.81
2023-01-19T09:37:46.797Z,98047.06
2023-01-19T09:38:50.945Z,98052.81
2023-01-19T09:39:55.196Z,98048.2
2023-01-19T09:40:59.442Z,98048.18
2023-01-19T09:42:03.585Z,98047.96
2023-01-19T09:43:07.747Z,98034.27
2023-01-19T09:44:11.862Z,98033.52
2023-01-19T09:45:16.053Z,98024.47
2023-01-19T09:46:20.391Z,98028.23
2023-01-19T09:47:24.590Z,98026.64
2023-01-19T09:48:28.718Z,98033.71
2023-01-19T09:49:32.856Z,98037.7
2023-01-19T09:50:36.973Z,98034.48
2023-01-19T09:51:41.075Z,98030.88
2023-01-19T09:52:45.226Z,98030.97
2023-01-19T09:53:49.342Z,98024.74
2023-01-19T09:54:53.499Z,98024.83
2023-01-19T09:55:57.607Z,98021.94
2023-01-19T09:57:01.787Z,98021.41
2023-01-19T09:58:05.882Z,98019.13
2023-01-19T09:59:09.993Z,98016.64
2023-01-19T10:00:14.098Z,98015.73
2023-01-19T10:01:18.461Z,98024.57
2023-01-19T10:02:22.747Z,98027.3
2023-01-19T10:03:27.014Z,98030.97
2023-01-19T10:04:31.229Z,98034.58
2023-01-19T10:05:35.362Z,98028.61
2023-01-19T10:06:39.465Z,98031.44
2023-01-19T10:07:43.614Z,98026.39
2023-01-19T10:08:47.747Z,98015.36
2023-01-19T10:09:51.855Z,98014.98
2023-01-19T10:10:56.068Z,98013.45
2023-01-19T10:12:00.259Z,98009.62
2023-01-19T10:13:04.765Z,98017.84
2023-01-19T10:14:11.255Z,98019.67
2023-01-19T10:15:15.402Z,98017.03
2023-01-19T10:16:19.691Z,98014.35
2023-01-19T10:17:23.868Z,97999.44
2023-01-19T10:18:27.976Z,98004.2
2023-01-19T10:19:32.062Z,97995.77
2023-01-19T10:20:36.187Z,97989.92
2023-01-19T10:21:40.349Z,97999.6
2023-01-19T10:22:44.536Z,97994.47
2023-01-19T10:23:48.723Z,97996.61
2023-01-19T10:24:52.863Z,98000.58
2023-01-19T10:25:57.193Z,97999.11
2023-01-19T10:27:01.523Z,97981.83
2023-01-19T10:28:05.743Z,97978.4
2023-01-19T10:29:12.620Z,97984.16
2023-01-19T10:30:16.759Z,97984.47
2023-01-19T10:31:21.331Z,97987.78
2023-01-19T10:32:25.668Z,97991.23
2023-01-19T10:33:29.796Z,97980.83
2023-01-19T10:34:34.000Z,97985.48
2023-01-19T10:35:38.362Z,97982.81
2023-01-19T10:36:42.538Z,97976.42
2023-01-19T10:37:46.643Z,97975
2023-01-19T10:38:50.931Z,97985.77
2023-01-19T10:39:55.148Z,97980.67
2023-01-19T10:40:59.384Z,97987.86
2023-01-19T10:42:03.646Z,97988.72
2023-01-19T10:43:07.941Z,97975.63
2023-01-19T10:44:12.166Z,97991
2023-01-19T10:45:16.335Z,97983.94
2023-01-19T10:46:20.709Z,97987.95
2023-01-19T10:47:25.096Z,97992.6
2023-01-19T10:48:29.240Z,97983.3
2023-01-19T10:49:33.371Z,97982.18
2023-01-19T10:50:37.526Z,97975.13
2023-01-19T10:51:41.773Z,97983.21
2023-01-19T10:52:45.893Z,97982.34
2023-01-19T10:53:50.028Z,97988.2
2023-01-19T10:54:54.179Z,97989.14
2023-01-19T10:55:58.427Z,97991.41
2023-01-19T10:57:05.426Z,97984.31
2023-01-19T10:58:09.692Z,97979.67
2023-01-19T10:59:14.007Z,97987.94
2023-01-19T11:00:18.258Z,97986.66
2023-01-19T11:01:22.761Z,97983.35
2023-01-19T11:02:27.988Z,97978.7
2023-01-19T11:03:32.629Z,97973.63
2023-01-19T11:04:36.845Z,97976.48
2023-01-19T11:05:41.039Z,97974.8
2023-01-19T11:06:45.163Z,97981.17
2023-01-19T11:07:49.311Z,97975.33
2023-01-19T11:08:53.434Z,97973.23
2023-01-19T11:09:57.730Z,97975.33
2023-01-19T11:11:01.872Z,97972.37
2023-01-19T11:12:06.064Z,97973.53
2023-01-19T11:13:10.168Z,97969.2
2023-01-19T11:14:14.298Z,97964.78
2023-01-19T11:15:18.402Z,97967.98
2023-01-19T11:16:22.635Z,97965.09
2023-01-19T11:17:26.860Z,97959.55
2023-01-19T11:18:30.990Z,97957.37
2023-01-19T11:19:35.115Z,97965.09
2023-01-19T11:20:39.220Z,97965.18
2023-01-19T11:21:43.417Z,97966.12
2023-01-19T11:22:49.768Z,97958.53
2023-01-19T11:23:53.903Z,97953.17
2023-01-19T11:24:58.020Z,97955.53
2023-01-19T11:26:02.157Z,97956.17
2023-01-19T11:27:06.278Z,97954.78
2023-01-19T11:28:10.571Z,97954.34
2023-01-19T11:29:14.816Z,97954.03
2023-01-19T11:30:18.914Z,97955.02
2023-01-19T11:31:23.237Z,97949.56
2023-01-19T11:32:27.608Z,97957.47
2023-01-19T11:33:31.726Z,97963.19
2023-01-19T11:34:37.583Z,97961.85
2023-01-19T11:35:41.704Z,97961.85
2023-01-19T11:36:45.827Z,97959.88
2023-01-19T11:37:49.937Z,97953.23
2023-01-19T11:38:54.276Z,97951.13
2023-01-19T11:39:58.413Z,97957.3
2023-01-19T11:41:02.522Z,97950.85
2023-01-19T11:42:06.647Z,97947.59
2023-01-19T11:43:10.766Z,97948.45
2023-01-19T11:44:14.894Z,97948.5
2023-01-19T11:45:19.571Z,97950.67
2023-01-19T11:46:23.679Z,97951.83
2023-01-19T11:47:27.878Z,97955.55
2023-01-19T11:48:32.005Z,97956.13
2023-01-19T11:49:36.140Z,97964.63
2023-01-19T11:50:40.324Z,97966.27
2023-01-19T11:51:44.425Z,97961.79
2023-01-19T11:52:48.659Z,97960.86
2023-01-19T11:53:52.889Z,97954.92
2023-01-19T11:54:57.048Z,97960.91
2023-01-19T11:56:01.177Z,97963.9
2023-01-19T11:57:05.272Z,97954.3
2023-01-19T11:58:09.381Z,97960.81
2023-01-19T11:59:13.523Z,97957.02
2023-01-19T12:00:17.618Z,97954.11
2023-01-19T12:01:21.897Z,97941.65
2023-01-19T12:02:26.200Z,97945.27
2023-01-19T12:03:30.578Z,97944.28
2023-01-19T12:04:34.946Z,97934.77
2023-01-19T12:05:39.075Z,97940.13
2023-01-19T12:06:43.221Z,97943.49
2023-01-19T12:07:47.325Z,97939.59
2023-01-19T12:08:51.443Z,97936.7
2023-01-19T12:09:55.578Z,97938.53
2023-01-19T12:10:59.985Z,97946.25
2023-01-19T12:12:04.390Z,97953.71
2023-01-19T12:13:08.556Z,97952.47
2023-01-19T12:14:12.761Z,97954.56
2023-01-19T12:15:16.871Z,97956.67
2023-01-19T12:16:21.064Z,97955.63
2023-01-19T12:17:25.302Z,97953.45
2023-01-19T12:18:29.474Z,97950.5
2023-01-19T12:19:33.628Z,97942.05
2023-01-19T12:20:37.740Z,97949.96
2023-01-19T12:21:41.877Z,97955.32
2023-01-19T12:22:45.996Z,97954.74
2023-01-19T12:23:50.096Z,97957.15
2023-01-19T12:24:54.249Z,97959.75
2023-01-19T12:25:59.132Z,97966.72
2023-01-19T12:27:03.323Z,97960.06
2023-01-19T12:28:07.522Z,97961.4
2023-01-19T12:29:14.562Z,97961.17
2023-01-19T12:30:18.763Z,97957.38
2023-01-19T12:31:24.301Z,97964.13
2023-01-19T12:32:29.452Z,97962.28
2023-01-19T12:33:36.566Z,97963.05
2023-01-19T12:34:40.892Z,97972.48
2023-01-19T12:35:45.073Z,97967.34
2023-01-19T12:36:49.200Z,97969.22
2023-01-19T12:37:53.348Z,97966.18
2023-01-19T12:38:57.607Z,97969.72